sensor_id;sensor_type;location;lat;lon;timestamp;P1;durP1;ratioP1;P2;durP2;ratioP2
78346;SDS011;67803;41.330;69.282;2023-11-18T00:01:25;18.77;;;4.78;;
78346;SDS011;67803;41.330;69.282;2023-11-18T00:03:56;15.25;;;4.20;;
78346;SDS011;67803;41.330;69.282;2023-11-18T00:06:27;14.27;;;4.80;;
78346;SDS011;67803;41.330;69.282;2023-11-18T00:08:58;16.65;;;4.28;;
78346;SDS011;67803;41.330;69.282;2023-11-18T00:11:29;17.45;;;3.85;;
78346;SDS011;67803;41.330;69.282;2023-11-18T00:14:00;20.35;;;4.63;;
78346;SDS011;67803;41.330;69.282;2023-11-18T00:16:35;20.40;;;5.25;;
78346;SDS011;67803;41.330;69.282;2023-11-18T00:19:07;21.70;;;5.45;;
78346;SDS011;67803;41.330;69.282;2023-11-18T00:21:39;20.63;;;5.40;;
78346;SDS011;67803;41.330;69.282;2023-11-18T00:24:10;24.20;;;5.75;;
78346;SDS011;67803;41.330;69.282;2023-11-18T00:26:41;24.05;;;5.50;;
78346;SDS011;67803;41.330;69.282;2023-11-18T00:29:12;21.90;;;5.55;;
78346;SDS011;67803;41.330;69.282;2023-11-18T00:31:43;22.55;;;5.80;;
78346;SDS011;67803;41.330;69.282;2023-11-18T00:34:14;21.48;;;5.50;;
78346;SDS011;67803;41.330;69.282;2023-11-18T00:36:45;23.48;;;5.07;;
78346;SDS011;67803;41.330;69.282;2023-11-18T00:39:16;25.02;;;5.20;;
78346;SDS011;67803;41.330;69.282;2023-11-18T00:41:47;23.23;;;5.47;;
78346;SDS011;67803;41.330;69.282;2023-11-18T00:44:19;23.90;;;5.57;;
78346;SDS011;67803;41.330;69.282;2023-11-18T00:46:50;19.83;;;4.65;;
78346;SDS011;67803;41.330;69.282;2023-11-18T00:49:21;32.22;;;5.68;;
78346;SDS011;67803;41.330;69.282;2023-11-18T00:51:52;21.38;;;5.63;;
78346;SDS011;67803;41.330;69.282;2023-11-18T00:54:23;23.48;;;5.90;;
78346;SDS011;67803;41.330;69.282;2023-11-18T00:56:54;22.35;;;4.78;;
78346;SDS011;67803;41.330;69.282;2023-11-18T00:59:25;21.25;;;4.70;;
78346;SDS011;67803;41.330;69.282;2023-11-18T01:01:57;28.00;;;5.20;;
78346;SDS011;67803;41.330;69.282;2023-11-18T01:04:28;17.30;;;4.10;;
78346;SDS011;67803;41.330;69.282;2023-11-18T01:06:59;22.33;;;4.60;;
78346;SDS011;67803;41.330;69.282;2023-11-18T01:09:30;19.23;;;4.28;;
78346;SDS011;67803;41.330;69.282;2023-11-18T01:12:07;20.85;;;4.50;;
78346;SDS011;67803;41.330;69.282;2023-11-18T01:14:40;21.77;;;4.55;;
78346;SDS011;67803;41.330;69.282;2023-11-18T01:17:12;25.85;;;4.60;;
78346;SDS011;67803;41.330;69.282;2023-11-18T01:19:44;19.75;;;4.13;;
78346;SDS011;67803;41.330;69.282;2023-11-18T01:22:15;22.50;;;4.80;;
78346;SDS011;67803;41.330;69.282;2023-11-18T01:24:46;18.95;;;4.32;;
78346;SDS011;67803;41.330;69.282;2023-11-18T01:27:17;26.63;;;4.60;;
78346;SDS011;67803;41.330;69.282;2023-11-18T01:29:49;22.70;;;4.85;;
78346;SDS011;67803;41.330;69.282;2023-11-18T01:32:20;21.80;;;5.00;;
78346;SDS011;67803;41.330;69.282;2023-11-18T01:34:51;26.75;;;4.93;;
78346;SDS011;67803;41.330;69.282;2023-11-18T01:37:23;24.67;;;4.97;;
78346;SDS011;67803;41.330;69.282;2023-11-18T01:39:54;22.48;;;4.93;;
78346;SDS011;67803;41.330;69.282;2023-11-18T01:42:25;27.98;;;6.53;;
78346;SDS011;67803;41.330;69.282;2023-11-18T01:44:56;23.75;;;5.25;;
78346;SDS011;67803;41.330;69.282;2023-11-18T01:47:31;21.65;;;4.63;;
78346;SDS011;67803;41.330;69.282;2023-11-18T01:50:03;18.33;;;5.15;;
78346;SDS011;67803;41.330;69.282;2023-11-18T01:55:07;20.58;;;4.28;;
78346;SDS011;67803;41.330;69.282;2023-11-18T01:57:39;25.15;;;4.80;;
78346;SDS011;67803;41.330;69.282;2023-11-18T02:00:14;17.90;;;4.18;;
78346;SDS011;67803;41.330;69.282;2023-11-18T02:02:47;14.05;;;4.20;;
78346;SDS011;67803;41.330;69.282;2023-11-18T02:05:18;26.42;;;5.07;;
78346;SDS011;67803;41.330;69.282;2023-11-18T02:07:49;17.90;;;4.18;;
78346;SDS011;67803;41.330;69.282;2023-11-18T02:10:20;22.55;;;5.32;;
78346;SDS011;67803;41.330;69.282;2023-11-18T02:13:04;27.73;;;4.85;;
78346;SDS011;67803;41.330;69.282;2023-11-18T02:15:37;24.85;;;4.32;;
78346;SDS011;67803;41.330;69.282;2023-11-18T02:18:08;27.42;;;5.22;;
78346;SDS011;67803;41.330;69.282;2023-11-18T02:20:43;28.38;;;4.88;;
78346;SDS011;67803;41.330;69.282;2023-11-18T02:23:14;24.00;;;4.60;;
78346;SDS011;67803;41.330;69.282;2023-11-18T02:25:47;25.67;;;5.50;;
78346;SDS011;67803;41.330;69.282;2023-11-18T02:28:19;26.98;;;4.88;;
78346;SDS011;67803;41.330;69.282;2023-11-18T02:30:50;28.08;;;5.32;;
78346;SDS011;67803;41.330;69.282;2023-11-18T02:33:28;26.77;;;5.03;;
78346;SDS011;67803;41.330;69.282;2023-11-18T02:36:05;31.30;;;5.50;;
78346;SDS011;67803;41.330;69.282;2023-11-18T02:38:39;27.80;;;6.00;;
78346;SDS011;67803;41.330;69.282;2023-11-18T02:41:12;32.33;;;5.35;;
78346;SDS011;67803;41.330;69.282;2023-11-18T02:43:44;25.25;;;5.68;;
78346;SDS011;67803;41.330;69.282;2023-11-18T02:46:16;28.67;;;5.53;;
78346;SDS011;67803;41.330;69.282;2023-11-18T02:48:47;30.75;;;5.80;;
78346;SDS011;67803;41.330;69.282;2023-11-18T02:51:18;24.38;;;5.13;;
78346;SDS011;67803;41.330;69.282;2023-11-18T02:53:49;28.63;;;5.78;;
78346;SDS011;67803;41.330;69.282;2023-11-18T02:56:20;33.78;;;5.00;;
78346;SDS011;67803;41.330;69.282;2023-11-18T02:58:52;28.23;;;6.03;;
78346;SDS011;67803;41.330;69.282;2023-11-18T03:01:23;36.10;;;6.65;;
78346;SDS011;67803;41.330;69.282;2023-11-18T03:03:55;30.75;;;5.97;;
78346;SDS011;67803;41.330;69.282;2023-11-18T03:06:26;31.35;;;6.97;;
78346;SDS011;67803;41.330;69.282;2023-11-18T03:08:58;31.60;;;6.53;;
78346;SDS011;67803;41.330;69.282;2023-11-18T03:11:29;28.67;;;7.82;;
78346;SDS011;67803;41.330;69.282;2023-11-18T03:14:03;30.95;;;7.63;;
78346;SDS011;67803;41.330;69.282;2023-11-18T03:16:36;43.42;;;8.90;;
78346;SDS011;67803;41.330;69.282;2023-11-18T03:19:08;35.40;;;8.48;;
78346;SDS011;67803;41.330;69.282;2023-11-18T03:21:39;34.42;;;7.85;;
78346;SDS011;67803;41.330;69.282;2023-11-18T03:24:10;50.22;;;9.55;;
78346;SDS011;67803;41.330;69.282;2023-11-18T03:26:41;35.90;;;8.30;;
78346;SDS011;67803;41.330;69.282;2023-11-18T03:29:12;39.75;;;7.40;;
78346;SDS011;67803;41.330;69.282;2023-11-18T03:31:43;35.50;;;6.93;;
78346;SDS011;67803;41.330;69.282;2023-11-18T03:34:20;42.95;;;6.63;;
78346;SDS011;67803;41.330;69.282;2023-11-18T03:36:51;37.38;;;6.20;;
78346;SDS011;67803;41.330;69.282;2023-11-18T03:39:22;29.83;;;5.82;;
78346;SDS011;67803;41.330;69.282;2023-11-18T03:41:53;31.63;;;6.57;;
78346;SDS011;67803;41.330;69.282;2023-11-18T03:44:29;32.88;;;5.72;;
78346;SDS011;67803;41.330;69.282;2023-11-18T03:47:00;32.35;;;5.65;;
78346;SDS011;67803;41.330;69.282;2023-11-18T03:49:33;40.35;;;6.85;;
78346;SDS011;67803;41.330;69.282;2023-11-18T03:52:04;30.13;;;5.93;;
78346;SDS011;67803;41.330;69.282;2023-11-18T03:54:36;35.72;;;6.53;;
78346;SDS011;67803;41.330;69.282;2023-11-18T03:57:07;35.13;;;6.65;;
78346;SDS011;67803;41.330;69.282;2023-11-18T03:59:39;34.55;;;7.22;;
78346;SDS011;67803;41.330;69.282;2023-11-18T04:02:11;39.95;;;7.07;;
78346;SDS011;67803;41.330;69.282;2023-11-18T04:04:42;34.08;;;7.25;;
78346;SDS011;67803;41.330;69.282;2023-11-18T04:07:15;43.40;;;7.78;;
78346;SDS011;67803;41.330;69.282;2023-11-18T04:09:46;31.80;;;6.32;;
78346;SDS011;67803;41.330;69.282;2023-11-18T04:12:17;40.85;;;7.80;;
78346;SDS011;67803;41.330;69.282;2023-11-18T04:14:49;37.97;;;7.13;;
78346;SDS011;67803;41.330;69.282;2023-11-18T04:17:20;43.30;;;6.68;;
78346;SDS011;67803;41.330;69.282;2023-11-18T04:19:51;43.92;;;7.90;;
78346;SDS011;67803;41.330;69.282;2023-11-18T04:22:23;43.83;;;8.18;;
78346;SDS011;67803;41.330;69.282;2023-11-18T04:24:55;33.17;;;7.10;;
78346;SDS011;67803;41.330;69.282;2023-11-18T04:27:26;29.20;;;6.70;;
78346;SDS011;67803;41.330;69.282;2023-11-18T04:29:57;33.95;;;8.05;;
78346;SDS011;67803;41.330;69.282;2023-11-18T04:32:30;30.45;;;7.05;;
78346;SDS011;67803;41.330;69.282;2023-11-18T04:35:04;33.75;;;7.40;;
78346;SDS011;67803;41.330;69.282;2023-11-18T04:37:40;45.22;;;8.52;;
78346;SDS011;67803;41.330;69.282;2023-11-18T04:40:13;43.78;;;8.88;;
78346;SDS011;67803;41.330;69.282;2023-11-18T04:42:44;36.78;;;8.43;;
78346;SDS011;67803;41.330;69.282;2023-11-18T04:45:15;39.45;;;8.57;;
78346;SDS011;67803;41.330;69.282;2023-11-18T04:47:47;42.97;;;8.82;;
78346;SDS011;67803;41.330;69.282;2023-11-18T04:50:20;44.25;;;10.15;;
78346;SDS011;67803;41.330;69.282;2023-11-18T04:52:51;38.97;;;8.20;;
78346;SDS011;67803;41.330;69.282;2023-11-18T04:55:22;36.38;;;8.63;;
78346;SDS011;67803;41.330;69.282;2023-11-18T04:57:54;38.08;;;8.93;;
78346;SDS011;67803;41.330;69.282;2023-11-18T05:00:25;40.95;;;8.32;;
78346;SDS011;67803;41.330;69.282;2023-11-18T05:02:56;41.90;;;8.57;;
78346;SDS011;67803;41.330;69.282;2023-11-18T05:05:28;49.72;;;10.10;;
78346;SDS011;67803;41.330;69.282;2023-11-18T05:07:59;49.42;;;9.07;;
78346;SDS011;67803;41.330;69.282;2023-11-18T05:10:30;49.45;;;9.25;;
78346;SDS011;67803;41.330;69.282;2023-11-18T05:13:01;39.30;;;8.70;;
78346;SDS011;67803;41.330;69.282;2023-11-18T05:15:33;46.00;;;10.13;;
78346;SDS011;67803;41.330;69.282;2023-11-18T05:18:04;44.85;;;9.38;;
78346;SDS011;67803;41.330;69.282;2023-11-18T05:20:39;45.55;;;10.95;;
78346;SDS011;67803;41.330;69.282;2023-11-18T05:23:11;48.53;;;10.20;;
78346;SDS011;67803;41.330;69.282;2023-11-18T05:25:43;46.72;;;10.60;;
78346;SDS011;67803;41.330;69.282;2023-11-18T05:28:15;47.28;;;11.32;;
78346;SDS011;67803;41.330;69.282;2023-11-18T05:30:46;55.97;;;11.43;;
78346;SDS011;67803;41.330;69.282;2023-11-18T05:33:17;50.95;;;11.88;;
78346;SDS011;67803;41.330;69.282;2023-11-18T05:35:50;57.17;;;12.50;;
78346;SDS011;67803;41.330;69.282;2023-11-18T05:38:22;48.83;;;12.00;;
78346;SDS011;67803;41.330;69.282;2023-11-18T05:40:54;52.67;;;13.00;;
78346;SDS011;67803;41.330;69.282;2023-11-18T05:43:30;55.58;;;12.73;;
78346;SDS011;67803;41.330;69.282;2023-11-18T05:46:10;56.08;;;12.75;;
78346;SDS011;67803;41.330;69.282;2023-11-18T05:48:53;58.72;;;13.45;;
78346;SDS011;67803;41.330;69.282;2023-11-18T05:51:27;61.30;;;13.32;;
78346;SDS011;67803;41.330;69.282;2023-11-18T05:53:59;68.00;;;13.65;;
78346;SDS011;67803;41.330;69.282;2023-11-18T05:56:30;52.38;;;12.98;;
78346;SDS011;67803;41.330;69.282;2023-11-18T05:59:02;49.60;;;13.07;;
78346;SDS011;67803;41.330;69.282;2023-11-18T06:01:33;67.35;;;14.35;;
78346;SDS011;67803;41.330;69.282;2023-11-18T06:04:05;67.05;;;14.90;;
78346;SDS011;67803;41.330;69.282;2023-11-18T06:06:38;67.45;;;13.88;;
78346;SDS011;67803;41.330;69.282;2023-11-18T06:09:09;68.25;;;14.95;;
78346;SDS011;67803;41.330;69.282;2023-11-18T06:11:48;71.70;;;15.68;;
78346;SDS011;67803;41.330;69.282;2023-11-18T06:14:20;73.53;;;15.20;;
78346;SDS011;67803;41.330;69.282;2023-11-18T06:16:51;77.03;;;16.85;;
78346;SDS011;67803;41.330;69.282;2023-11-18T06:19:23;57.60;;;14.48;;
78346;SDS011;67803;41.330;69.282;2023-11-18T06:21:54;83.55;;;16.52;;
78346;SDS011;67803;41.330;69.282;2023-11-18T06:24:25;70.43;;;14.98;;
78346;SDS011;67803;41.330;69.282;2023-11-18T06:26:56;77.03;;;15.98;;
78346;SDS011;67803;41.330;69.282;2023-11-18T06:29:30;77.38;;;15.63;;
78346;SDS011;67803;41.330;69.282;2023-11-18T06:32:01;72.00;;;15.95;;
78346;SDS011;67803;41.330;69.282;2023-11-18T06:34:32;78.85;;;17.20;;
78346;SDS011;67803;41.330;69.282;2023-11-18T06:37:03;76.35;;;17.45;;
78346;SDS011;67803;41.330;69.282;2023-11-18T06:39:40;77.57;;;17.02;;
78346;SDS011;67803;41.330;69.282;2023-11-18T06:42:11;83.00;;;18.80;;
78346;SDS011;67803;41.330;69.282;2023-11-18T06:44:42;79.82;;;18.98;;
78346;SDS011;67803;41.330;69.282;2023-11-18T06:47:14;78.03;;;19.27;;
78346;SDS011;67803;41.330;69.282;2023-11-18T06:49:47;84.97;;;20.25;;
78346;SDS011;67803;41.330;69.282;2023-11-18T06:52:18;77.32;;;21.35;;
78346;SDS011;67803;41.330;69.282;2023-11-18T06:54:49;83.85;;;20.85;;
78346;SDS011;67803;41.330;69.282;2023-11-18T06:57:23;90.38;;;20.63;;
78346;SDS011;67803;41.330;69.282;2023-11-18T06:59:54;90.38;;;23.02;;
78346;SDS011;67803;41.330;69.282;2023-11-18T07:02:25;98.40;;;24.98;;
78346;SDS011;67803;41.330;69.282;2023-11-18T07:04:57;101.80;;;25.42;;
78346;SDS011;67803;41.330;69.282;2023-11-18T07:07:28;101.35;;;27.23;;
78346;SDS011;67803;41.330;69.282;2023-11-18T07:09:59;106.53;;;28.35;;
78346;SDS011;67803;41.330;69.282;2023-11-18T07:12:32;104.10;;;26.80;;
78346;SDS011;67803;41.330;69.282;2023-11-18T07:15:04;114.57;;;29.42;;
78346;SDS011;67803;41.330;69.282;2023-11-18T07:17:35;119.80;;;28.90;;
78346;SDS011;67803;41.330;69.282;2023-11-18T07:20:06;118.47;;;28.00;;
78346;SDS011;67803;41.330;69.282;2023-11-18T07:22:37;109.47;;;27.10;;
78346;SDS011;67803;41.330;69.282;2023-11-18T07:25:09;99.63;;;25.25;;
78346;SDS011;67803;41.330;69.282;2023-11-18T07:27:40;105.57;;;26.90;;
78346;SDS011;67803;41.330;69.282;2023-11-18T07:30:11;113.80;;;28.17;;
78346;SDS011;67803;41.330;69.282;2023-11-18T07:32:42;128.45;;;27.92;;
78346;SDS011;67803;41.330;69.282;2023-11-18T07:35:13;122.35;;;26.35;;
78346;SDS011;67803;41.330;69.282;2023-11-18T07:37:44;118.97;;;26.95;;
78346;SDS011;67803;41.330;69.282;2023-11-18T07:40:15;112.43;;;25.92;;
78346;SDS011;67803;41.330;69.282;2023-11-18T07:42:52;104.55;;;25.55;;
78346;SDS011;67803;41.330;69.282;2023-11-18T07:45:23;116.43;;;25.90;;
78346;SDS011;67803;41.330;69.282;2023-11-18T07:47:55;110.97;;;26.75;;
78346;SDS011;67803;41.330;69.282;2023-11-18T07:50:25;132.63;;;28.10;;
78346;SDS011;67803;41.330;69.282;2023-11-18T07:52:57;108.85;;;24.65;;
78346;SDS011;67803;41.330;69.282;2023-11-18T07:55:28;121.80;;;24.50;;
78346;SDS011;67803;41.330;69.282;2023-11-18T07:58:03;120.05;;;26.48;;
78346;SDS011;67803;41.330;69.282;2023-11-18T08:00:43;135.13;;;27.05;;
78346;SDS011;67803;41.330;69.282;2023-11-18T08:03:18;115.85;;;26.27;;
78346;SDS011;67803;41.330;69.282;2023-11-18T08:05:50;111.22;;;27.30;;
78346;SDS011;67803;41.330;69.282;2023-11-18T08:08:21;117.07;;;25.00;;
78346;SDS011;67803;41.330;69.282;2023-11-18T08:10:52;111.03;;;25.20;;
78346;SDS011;67803;41.330;69.282;2023-11-18T08:13:25;119.65;;;23.50;;
78346;SDS011;67803;41.330;69.282;2023-11-18T08:15:56;120.28;;;26.23;;
78346;SDS011;67803;41.330;69.282;2023-11-18T08:18:31;97.82;;;22.90;;
78346;SDS011;67803;41.330;69.282;2023-11-18T08:21:02;111.07;;;23.77;;
78346;SDS011;67803;41.330;69.282;2023-11-18T08:23:35;98.78;;;21.63;;
78346;SDS011;67803;41.330;69.282;2023-11-18T08:26:11;101.53;;;23.92;;
78346;SDS011;67803;41.330;69.282;2023-11-18T08:28:42;101.40;;;23.02;;
78346;SDS011;67803;41.330;69.282;2023-11-18T08:31:13;109.50;;;23.63;;
78346;SDS011;67803;41.330;69.282;2023-11-18T08:36:18;110.78;;;23.63;;
78346;SDS011;67803;41.330;69.282;2023-11-18T08:38:49;102.53;;;23.17;;
78346;SDS011;67803;41.330;69.282;2023-11-18T08:41:20;107.85;;;24.85;;
78346;SDS011;67803;41.330;69.282;2023-11-18T08:43:52;112.03;;;23.73;;
78346;SDS011;67803;41.330;69.282;2023-11-18T08:46:24;107.15;;;25.95;;
78346;SDS011;67803;41.330;69.282;2023-11-18T08:48:55;112.82;;;24.98;;
78346;SDS011;67803;41.330;69.282;2023-11-18T08:51:26;107.90;;;26.85;;
78346;SDS011;67803;41.330;69.282;2023-11-18T08:53:57;97.78;;;22.80;;
78346;SDS011;67803;41.330;69.282;2023-11-18T08:56:29;107.50;;;23.02;;
78346;SDS011;67803;41.330;69.282;2023-11-18T08:59:05;100.05;;;24.55;;
78346;SDS011;67803;41.330;69.282;2023-11-18T09:01:40;114.43;;;23.67;;
78346;SDS011;67803;41.330;69.282;2023-11-18T09:04:14;101.68;;;24.25;;
78346;SDS011;67803;41.330;69.282;2023-11-18T09:06:45;96.70;;;22.35;;
78346;SDS011;67803;41.330;69.282;2023-11-18T09:09:16;90.35;;;20.70;;
78346;SDS011;67803;41.330;69.282;2023-11-18T09:11:49;94.18;;;21.98;;
78346;SDS011;67803;41.330;69.282;2023-11-18T09:14:20;96.03;;;21.63;;
78346;SDS011;67803;41.330;69.282;2023-11-18T09:16:52;90.18;;;20.13;;
78346;SDS011;67803;41.330;69.282;2023-11-18T09:19:25;90.10;;;19.90;;
78346;SDS011;67803;41.330;69.282;2023-11-18T09:21:56;82.55;;;19.65;;
78346;SDS011;67803;41.330;69.282;2023-11-18T09:24:27;71.18;;;18.05;;
78346;SDS011;67803;41.330;69.282;2023-11-18T09:26:58;84.30;;;19.65;;
78346;SDS011;67803;41.330;69.282;2023-11-18T09:29:29;81.00;;;18.42;;
78346;SDS011;67803;41.330;69.282;2023-11-18T09:32:01;76.25;;;18.23;;
78346;SDS011;67803;41.330;69.282;2023-11-18T09:34:36;86.40;;;18.25;;
78346;SDS011;67803;41.330;69.282;2023-11-18T09:37:09;74.28;;;17.95;;
78346;SDS011;67803;41.330;69.282;2023-11-18T09:39:40;76.85;;;17.63;;
78346;SDS011;67803;41.330;69.282;2023-11-18T09:42:15;70.72;;;16.55;;
78346;SDS011;67803;41.330;69.282;2023-11-18T09:44:49;75.28;;;17.30;;
78346;SDS011;67803;41.330;69.282;2023-11-18T09:47:20;88.35;;;18.63;;
78346;SDS011;67803;41.330;69.282;2023-11-18T09:49:55;77.65;;;18.13;;
78346;SDS011;67803;41.330;69.282;2023-11-18T09:52:29;76.75;;;17.20;;
78346;SDS011;67803;41.330;69.282;2023-11-18T09:55:02;69.05;;;16.80;;
78346;SDS011;67803;41.330;69.282;2023-11-18T09:57:37;72.20;;;16.67;;
78346;SDS011;67803;41.330;69.282;2023-11-18T10:00:14;72.30;;;15.43;;
78346;SDS011;67803;41.330;69.282;2023-11-18T10:03:02;63.75;;;15.40;;
78346;SDS011;67803;41.330;69.282;2023-11-18T10:05:40;77.85;;;15.90;;
78346;SDS011;67803;41.330;69.282;2023-11-18T10:08:11;62.90;;;16.33;;
78346;SDS011;67803;41.330;69.282;2023-11-18T10:10:44;75.72;;;16.10;;
78346;SDS011;67803;41.330;69.282;2023-11-18T10:13:16;63.30;;;15.32;;
78346;SDS011;67803;41.330;69.282;2023-11-18T10:15:53;64.85;;;15.75;;
78346;SDS011;67803;41.330;69.282;2023-11-18T10:18:24;66.20;;;15.80;;
78346;SDS011;67803;41.330;69.282;2023-11-18T10:23:30;71.95;;;14.68;;
78346;SDS011;67803;41.330;69.282;2023-11-18T10:26:04;76.53;;;15.73;;
78346;SDS011;67803;41.330;69.282;2023-11-18T10:28:35;71.93;;;15.98;;
78346;SDS011;67803;41.330;69.282;2023-11-18T10:31:09;70.78;;;16.13;;
78346;SDS011;67803;41.330;69.282;2023-11-18T10:33:41;67.43;;;15.88;;
78346;SDS011;67803;41.330;69.282;2023-11-18T10:36:20;71.25;;;16.13;;
78346;SDS011;67803;41.330;69.282;2023-11-18T10:38:54;92.57;;;17.33;;
78346;SDS011;67803;41.330;69.282;2023-11-18T10:41:30;78.35;;;16.95;;
78346;SDS011;67803;41.330;69.282;2023-11-18T10:44:06;66.75;;;16.08;;
78346;SDS011;67803;41.330;69.282;2023-11-18T10:46:51;83.38;;;18.00;;
78346;SDS011;67803;41.330;69.282;2023-11-18T10:49:29;81.90;;;17.52;;
78346;SDS011;67803;41.330;69.282;2023-11-18T10:52:07;63.03;;;16.20;;
78346;SDS011;67803;41.330;69.282;2023-11-18T10:54:49;87.10;;;18.23;;
78346;SDS011;67803;41.330;69.282;2023-11-18T10:57:24;77.03;;;18.83;;
78346;SDS011;67803;41.330;69.282;2023-11-18T11:00:05;67.53;;;17.27;;
78346;SDS011;67803;41.330;69.282;2023-11-18T11:05:49;72.60;;;18.70;;
78346;SDS011;67803;41.330;69.282;2023-11-18T11:08:22;77.60;;;20.42;;
78346;SDS011;67803;41.330;69.282;2023-11-18T11:10:54;75.70;;;20.20;;
78346;SDS011;67803;41.330;69.282;2023-11-18T11:13:29;73.35;;;18.60;;
78346;SDS011;67803;41.330;69.282;2023-11-18T11:16:00;71.75;;;19.45;;
78346;SDS011;67803;41.330;69.282;2023-11-18T11:18:36;70.75;;;19.15;;
78346;SDS011;67803;41.330;69.282;2023-11-18T11:21:15;62.45;;;15.52;;
78346;SDS011;67803;41.330;69.282;2023-11-18T11:24:04;63.65;;;15.80;;
78346;SDS011;67803;41.330;69.282;2023-11-18T11:26:56;62.53;;;14.85;;
78346;SDS011;67803;41.330;69.282;2023-11-18T11:29:30;64.82;;;16.27;;
78346;SDS011;67803;41.330;69.282;2023-11-18T11:35:19;63.58;;;16.95;;
78346;SDS011;67803;41.330;69.282;2023-11-18T11:37:53;71.15;;;16.40;;
78346;SDS011;67803;41.330;69.282;2023-11-18T11:40:28;56.72;;;17.20;;
78346;SDS011;67803;41.330;69.282;2023-11-18T11:43:00;65.43;;;16.73;;
78346;SDS011;67803;41.330;69.282;2023-11-18T11:45:35;85.82;;;17.42;;
78346;SDS011;67803;41.330;69.282;2023-11-18T11:48:07;81.22;;;17.95;;
78346;SDS011;67803;41.330;69.282;2023-11-18T11:53:22;92.22;;;20.80;;
78346;SDS011;67803;41.330;69.282;2023-11-18T11:55:57;88.55;;;21.15;;
78346;SDS011;67803;41.330;69.282;2023-11-18T11:58:37;77.47;;;20.95;;
78346;SDS011;67803;41.330;69.282;2023-11-18T12:01:27;77.45;;;20.30;;
78346;SDS011;67803;41.330;69.282;2023-11-18T12:04:03;77.88;;;18.35;;
78346;SDS011;67803;41.330;69.282;2023-11-18T12:06:44;79.60;;;19.02;;
78346;SDS011;67803;41.330;69.282;2023-11-18T12:09:17;85.07;;;20.90;;
78346;SDS011;67803;41.330;69.282;2023-11-18T12:11:56;67.47;;;18.75;;
78346;SDS011;67803;41.330;69.282;2023-11-18T12:14:29;69.18;;;20.35;;
78346;SDS011;67803;41.330;69.282;2023-11-18T12:17:01;69.85;;;19.77;;
78346;SDS011;67803;41.330;69.282;2023-11-18T12:19:40;71.82;;;19.70;;
78346;SDS011;67803;41.330;69.282;2023-11-18T12:22:18;74.72;;;20.58;;
78346;SDS011;67803;41.330;69.282;2023-11-18T12:27:43;60.05;;;15.02;;
78346;SDS011;67803;41.330;69.282;2023-11-18T12:33:04;70.28;;;18.80;;
78346;SDS011;67803;41.330;69.282;2023-11-18T12:38:48;75.35;;;17.38;;
78346;SDS011;67803;41.330;69.282;2023-11-18T12:41:34;72.60;;;19.25;;
78346;SDS011;67803;41.330;69.282;2023-11-18T12:44:25;70.43;;;18.70;;
78346;SDS011;67803;41.330;69.282;2023-11-18T12:47:02;82.15;;;22.98;;
78346;SDS011;67803;41.330;69.282;2023-11-18T12:49:48;86.25;;;24.23;;
78346;SDS011;67803;41.330;69.282;2023-11-18T12:52:21;82.93;;;22.73;;
78346;SDS011;67803;41.330;69.282;2023-11-18T12:54:52;75.18;;;21.65;;
78346;SDS011;67803;41.330;69.282;2023-11-18T12:57:29;97.13;;;23.50;;
78346;SDS011;67803;41.330;69.282;2023-11-18T13:00:09;86.72;;;25.20;;
78346;SDS011;67803;41.330;69.282;2023-11-18T13:02:42;88.13;;;24.60;;
78346;SDS011;67803;41.330;69.282;2023-11-18T13:05:14;82.50;;;22.50;;
78346;SDS011;67803;41.330;69.282;2023-11-18T13:07:45;90.75;;;23.15;;
78346;SDS011;67803;41.330;69.282;2023-11-18T13:10:18;76.63;;;21.80;;
78346;SDS011;67803;41.330;69.282;2023-11-18T13:12:53;97.63;;;24.10;;
78346;SDS011;67803;41.330;69.282;2023-11-18T13:15:25;90.53;;;22.20;;
78346;SDS011;67803;41.330;69.282;2023-11-18T13:18:03;80.50;;;22.90;;
78346;SDS011;67803;41.330;69.282;2023-11-18T13:20:38;97.00;;;24.00;;
78346;SDS011;67803;41.330;69.282;2023-11-18T13:23:11;116.85;;;27.33;;
78346;SDS011;67803;41.330;69.282;2023-11-18T13:25:43;110.10;;;27.38;;
78346;SDS011;67803;41.330;69.282;2023-11-18T13:31:22;113.75;;;25.52;;
78346;SDS011;67803;41.330;69.282;2023-11-18T13:33:53;105.47;;;24.60;;
78346;SDS011;67803;41.330;69.282;2023-11-18T13:36:25;103.22;;;25.92;;
78346;SDS011;67803;41.330;69.282;2023-11-18T13:38:57;114.65;;;26.77;;
78346;SDS011;67803;41.330;69.282;2023-11-18T13:41:29;96.25;;;23.50;;
78346;SDS011;67803;41.330;69.282;2023-11-18T13:44:03;94.07;;;23.50;;
78346;SDS011;67803;41.330;69.282;2023-11-18T13:46:37;91.18;;;24.08;;
78346;SDS011;67803;41.330;69.282;2023-11-18T13:49:11;102.70;;;25.55;;
78346;SDS011;67803;41.330;69.282;2023-11-18T13:51:43;90.90;;;24.00;;
78346;SDS011;67803;41.330;69.282;2023-11-18T13:54:16;96.68;;;23.90;;
78346;SDS011;67803;41.330;69.282;2023-11-18T13:56:49;85.68;;;23.30;;
78346;SDS011;67803;41.330;69.282;2023-11-18T13:59:22;98.47;;;25.10;;
78346;SDS011;67803;41.330;69.282;2023-11-18T14:01:54;81.97;;;24.77;;
78346;SDS011;67803;41.330;69.282;2023-11-18T14:04:28;92.97;;;24.65;;
78346;SDS011;67803;41.330;69.282;2023-11-18T14:07:00;100.45;;;25.27;;
78346;SDS011;67803;41.330;69.282;2023-11-18T14:12:09;98.35;;;23.42;;
78346;SDS011;67803;41.330;69.282;2023-11-18T14:14:41;88.32;;;22.90;;
78346;SDS011;67803;41.330;69.282;2023-11-18T14:17:12;105.10;;;26.73;;
78346;SDS011;67803;41.330;69.282;2023-11-18T14:19:44;93.07;;;24.98;;
78346;SDS011;67803;41.330;69.282;2023-11-18T14:22:18;91.65;;;25.45;;
78346;SDS011;67803;41.330;69.282;2023-11-18T14:24:49;102.40;;;24.98;;
78346;SDS011;67803;41.330;69.282;2023-11-18T14:27:21;97.82;;;23.75;;
78346;SDS011;67803;41.330;69.282;2023-11-18T14:29:52;94.65;;;25.20;;
78346;SDS011;67803;41.330;69.282;2023-11-18T14:32:23;90.05;;;25.50;;
78346;SDS011;67803;41.330;69.282;2023-11-18T14:34:54;87.30;;;23.05;;
78346;SDS011;67803;41.330;69.282;2023-11-18T14:37:27;98.30;;;25.90;;
78346;SDS011;67803;41.330;69.282;2023-11-18T14:39:58;101.63;;;29.13;;
78346;SDS011;67803;41.330;69.282;2023-11-18T14:42:30;97.18;;;28.40;;
78346;SDS011;67803;41.330;69.282;2023-11-18T14:45:02;99.55;;;31.17;;
78346;SDS011;67803;41.330;69.282;2023-11-18T14:47:34;98.57;;;30.00;;
78346;SDS011;67803;41.330;69.282;2023-11-18T14:50:05;95.38;;;26.27;;
78346;SDS011;67803;41.330;69.282;2023-11-18T14:52:46;89.25;;;25.10;;
78346;SDS011;67803;41.330;69.282;2023-11-18T14:58:14;99.05;;;25.08;;
78346;SDS011;67803;41.330;69.282;2023-11-18T15:00:46;86.63;;;23.85;;
78346;SDS011;67803;41.330;69.282;2023-11-18T15:03:21;82.55;;;23.50;;
78346;SDS011;67803;41.330;69.282;2023-11-18T15:05:53;94.43;;;24.23;;
78346;SDS011;67803;41.330;69.282;2023-11-18T15:08:25;81.60;;;23.10;;
78346;SDS011;67803;41.330;69.282;2023-11-18T15:10:56;89.90;;;24.25;;
78346;SDS011;67803;41.330;69.282;2023-11-18T15:13:31;91.97;;;21.88;;
78346;SDS011;67803;41.330;69.282;2023-11-18T15:16:04;84.53;;;22.48;;
78346;SDS011;67803;41.330;69.282;2023-11-18T15:18:35;81.18;;;24.05;;